createdAt,value
2023-05-14T00:02:11.424Z,61.06
2023-05-14T00:04:37.871Z,61.13
2023-05-14T00:07:04.308Z,61.06
2023-05-14T00:09:30.655Z,61.40
2023-05-14T00:11:56.986Z,59.74
2023-05-14T00:14:23.316Z,59.88
2023-05-14T00:16:49.679Z,59.58
2023-05-14T00:19:16.175Z,59.14
2023-05-14T00:21:42.597Z,59.63
2023-05-14T00:24:08.970Z,59.88
2023-05-14T00:26:35.329Z,59.95
2023-05-14T00:29:01.665Z,59.54
2023-05-14T00:31:28.027Z,59.73
2023-05-14T00:33:54.478Z,59.23
2023-05-14T00:36:20.810Z,59.07
2023-05-14T00:38:47.149Z,59.07
2023-05-14T00:41:13.519Z,58.66
2023-05-14T00:43:39.859Z,58.99
2023-05-14T00:46:06.196Z,59.64
2023-05-14T00:48:32.576Z,60.25
2023-05-14T00:50:58.971Z,60.21
2023-05-14T00:53:25.332Z,60.14
2023-05-14T00:55:51.658Z,59.97
2023-05-14T00:58:18.043Z,59.93
2023-05-14T01:00:44.442Z,59.70
2023-05-14T01:03:10.914Z,59.81
2023-05-14T01:05:37.340Z,59.53
2023-05-14T01:08:03.712Z,59.49
2023-05-14T01:10:30.037Z,59.22
2023-05-14T01:12:56.392Z,59.15
2023-05-14T01:15:22.817Z,59.54
2023-05-14T01:17:49.219Z,59.87
2023-05-14T01:20:15.695Z,60.45
2023-05-14T01:22:42.113Z,59.93
2023-05-14T01:25:08.467Z,59.68
2023-05-14T01:27:34.804Z,60.12
2023-05-14T01:30:01.174Z,60.73
2023-05-14T01:32:27.533Z,60.38
2023-05-14T01:34:53.888Z,61.01
2023-05-14T01:37:20.232Z,60.72
2023-05-14T01:39:46.616Z,60.80
2023-05-14T01:42:12.953Z,60.93
2023-05-14T01:44:39.346Z,60.71
2023-05-14T01:47:05.697Z,61.39
2023-05-14T01:49:32.083Z,61.51
2023-05-14T01:51:58.618Z,61.61
2023-05-14T01:54:25.000Z,62.14
2023-05-14T01:56:51.350Z,62.46
2023-05-14T01:59:17.740Z,62.15
2023-05-14T02:01:44.207Z,61.92
2023-05-14T02:04:10.697Z,61.84
2023-05-14T02:06:37.089Z,61.42
2023-05-14T02:09:03.510Z,62.01
2023-05-14T02:11:29.874Z,62.11
2023-05-14T02:13:56.284Z,62.57
2023-05-14T02:16:22.752Z,63.13
2023-05-14T02:18:49.295Z,62.97
2023-05-14T02:21:15.658Z,63.10
2023-05-14T02:23:42.352Z,62.73
2023-05-14T02:26:08.741Z,62.61
2023-05-14T02:28:35.084Z,62.91
2023-05-14T02:31:01.572Z,62.12
2023-05-14T02:33:27.984Z,61.94
2023-05-14T02:35:54.340Z,62.09
2023-05-14T02:38:20.722Z,61.70
2023-05-14T02:40:47.065Z,62.43
2023-05-14T02:43:13.393Z,62.10
2023-05-14T02:45:39.771Z,62.16
2023-05-14T02:48:06.234Z,61.57
2023-05-14T02:50:32.690Z,61.54
2023-05-14T02:52:59.137Z,61.90
2023-05-14T02:55:25.551Z,61.43
2023-05-14T02:57:51.931Z,61.52
2023-05-14T03:00:18.297Z,61.15
2023-05-14T03:02:45.397Z,61.54
2023-05-14T03:05:12.353Z,61.85
2023-05-14T03:07:38.682Z,62.62
2023-05-14T03:10:05.033Z,62.55
2023-05-14T03:12:31.429Z,62.56
2023-05-14T03:14:57.798Z,61.82
2023-05-14T03:17:24.207Z,61.37
2023-05-14T03:19:50.603Z,61.15
2023-05-14T03:22:16.981Z,61.23
2023-05-14T03:24:43.343Z,61.26
2023-05-14T03:27:09.715Z,61.82
2023-05-14T03:29:36.145Z,61.22
2023-05-14T03:32:02.493Z,61.91
2023-05-14T03:34:28.833Z,61.73
2023-05-14T03:36:55.164Z,61.75
2023-05-14T03:39:21.502Z,61.40
2023-05-14T03:41:47.974Z,61.52
2023-05-14T03:44:14.364Z,61.72
2023-05-14T03:46:40.754Z,61.62
2023-05-14T03:49:07.220Z,61.50
2023-05-14T03:51:33.636Z,61.45
2023-05-14T03:54:00.006Z,62.46
2023-05-14T03:56:26.345Z,62.68
2023-05-14T03:58:52.674Z,62.77
2023-05-14T04:01:19.027Z,63.20
2023-05-14T04:03:45.653Z,63.00
2023-05-14T04:06:12.277Z,62.99
2023-05-14T04:08:38.651Z,63.23
2023-05-14T04:11:05.075Z,63.21
2023-05-14T04:13:31.462Z,62.57
2023-05-14T04:15:57.841Z,62.96
2023-05-14T04:18:24.231Z,62.96
2023-05-14T04:20:50.619Z,63.21
2023-05-14T04:23:16.998Z,62.83
2023-05-14T04:25:43.353Z,62.86
2023-05-14T04:28:09.717Z,62.84
2023-05-14T04:30:36.066Z,63.41
2023-05-14T04:33:02.469Z,62.86
2023-05-14T04:35:28.869Z,62.94
2023-05-14T04:37:55.225Z,62.43
2023-05-14T04:40:21.741Z,62.12
2023-05-14T04:42:48.263Z,62.20
2023-05-14T04:45:14.612Z,62.30
2023-05-14T04:47:41.052Z,62.76
2023-05-14T04:50:07.545Z,63.11
2023-05-14T04:52:33.911Z,63.13
2023-05-14T04:55:00.355Z,63.35
2023-05-14T04:57:26.806Z,62.44
2023-05-14T04:59:53.173Z,62.93
2023-05-14T05:02:19.507Z,63.17
2023-05-14T05:04:45.838Z,62.94
2023-05-14T05:07:12.172Z,63.12
2023-05-14T05:09:38.516Z,62.70
2023-05-14T05:12:04.892Z,62.63
2023-05-14T05:14:31.263Z,63.05
2023-05-14T05:16:57.625Z,62.89
2023-05-14T05:19:35.746Z,62.58
2023-05-14T05:22:06.350Z,63.38
2023-05-14T05:24:32.674Z,63.50
2023-05-14T05:26:58.997Z,64.50
2023-05-14T05:29:25.335Z,65.02
2023-05-14T05:31:51.705Z,65.09
2023-05-14T05:34:18.085Z,65.85
2023-05-14T05:36:44.411Z,65.20
2023-05-14T05:39:10.736Z,65.11
2023-05-14T05:41:37.078Z,65.57
2023-05-14T05:44:03.584Z,65.59
2023-05-14T05:46:30.000Z,65.81
2023-05-14T05:48:56.397Z,65.29
2023-05-14T05:51:22.737Z,65.59
2023-05-14T05:53:49.117Z,65.24
2023-05-14T05:56:15.470Z,64.62
2023-05-14T05:58:41.842Z,65.13
2023-05-14T06:01:08.237Z,64.73
2023-05-14T06:03:34.594Z,65.07
2023-05-14T06:06:01.024Z,64.74
2023-05-14T06:08:27.372Z,65.05
2023-05-14T06:10:53.739Z,64.71
2023-05-14T06:13:20.110Z,64.91
2023-05-14T06:15:46.498Z,64.36
2023-05-14T06:18:12.829Z,64.52
2023-05-14T06:20:39.198Z,64.50
2023-05-14T06:23:05.541Z,64.11
2023-05-14T06:25:31.850Z,63.98
2023-05-14T06:27:59.704Z,64.37
2023-05-14T06:30:26.292Z,63.82
2023-05-14T06:32:54.236Z,63.13
2023-05-14T06:35:20.795Z,62.93
2023-05-14T06:37:47.124Z,62.40
2023-05-14T06:40:13.531Z,61.89
2023-05-14T06:42:39.960Z,61.71
2023-05-14T06:45:06.302Z,60.28
2023-05-14T06:47:32.726Z,60.06
2023-05-14T06:49:59.187Z,60.38
2023-05-14T06:52:25.582Z,60.68
2023-05-14T06:54:51.955Z,60.81
2023-05-14T06:57:18.403Z,60.89
2023-05-14T06:59:44.760Z,59.89
2023-05-14T07:02:11.161Z,58.75
2023-05-14T07:04:37.585Z,59.51
2023-05-14T07:07:03.924Z,58.10
2023-05-14T07:09:30.309Z,57.93
2023-05-14T07:11:56.675Z,58.35
2023-05-14T07:14:23.089Z,58.05
2023-05-14T07:16:49.460Z,58.28
2023-05-14T07:19:15.928Z,58.81
2023-05-14T07:21:42.316Z,58.44
2023-05-14T07:24:08.694Z,58.55
2023-05-14T07:26:35.063Z,57.87
2023-05-14T07:29:01.404Z,58.51
2023-05-14T07:31:27.854Z,58.31
2023-05-14T07:33:54.304Z,58.12
2023-05-14T07:36:21.184Z,58.61
2023-05-14T07:38:47.551Z,58.29
2023-05-14T07:41:13.904Z,58.11
2023-05-14T07:43:40.321Z,56.95
2023-05-14T07:46:06.787Z,57.19
2023-05-14T07:48:33.322Z,57.59
2023-05-14T07:50:59.814Z,57.04
2023-05-14T07:53:26.176Z,57.45
2023-05-14T07:55:52.525Z,57.47
2023-05-14T07:58:18.869Z,58.15
2023-05-14T08:00:45.258Z,58.13
2023-05-14T08:03:11.723Z,57.89
2023-05-14T08:05:38.237Z,57.75
2023-05-14T08:08:04.605Z,57.22
2023-05-14T08:10:31.092Z,56.61
2023-05-14T08:12:57.455Z,56.93
2023-05-14T08:15:25.764Z,56.70
2023-05-14T08:17:53.562Z,56.67
2023-05-14T08:20:19.967Z,57.09
2023-05-14T08:22:46.317Z,57.47
2023-05-14T08:25:12.650Z,56.64
2023-05-14T08:27:39.005Z,57.71
2023-05-14T08:30:05.372Z,57.03
2023-05-14T08:32:31.768Z,57.14
2023-05-14T08:34:58.172Z,57.33
2023-05-14T08:37:24.570Z,57.84
2023-05-14T08:39:50.923Z,56.74
2023-05-14T08:42:17.295Z,56.00
2023-05-14T08:44:43.688Z,56.32
2023-05-14T08:47:10.086Z,55.61
2023-05-14T08:49:36.460Z,56.32
2023-05-14T08:52:02.827Z,56.27
2023-05-14T08:54:29.220Z,56.39
2023-05-14T08:56:55.593Z,56.09
2023-05-14T08:59:22.037Z,55.61
2023-05-14T09:01:48.517Z,56.09
2023-05-14T09:04:15.037Z,56.24
2023-05-14T09:06:41.515Z,55.59
2023-05-14T09:09:07.870Z,55.64
2023-05-14T09:11:34.249Z,55.96
2023-05-14T09:14:00.630Z,56.43
2023-05-14T09:16:27.081Z,55.78
2023-05-14T09:18:53.507Z,57.46
2023-05-14T09:21:19.934Z,57.25
2023-05-14T09:23:46.368Z,57.70
2023-05-14T09:26:12.714Z,57.33
2023-05-14T09:28:39.057Z,57.37
2023-05-14T09:31:05.431Z,57.84
2023-05-14T09:33:31.872Z,57.88
2023-05-14T09:35:58.423Z,57.46
2023-05-14T09:38:24.817Z,57.99
2023-05-14T09:40:51.175Z,57.47
2023-05-14T09:43:17.538Z,56.64
2023-05-14T09:45:43.922Z,56.91
2023-05-14T09:48:10.486Z,57.62
2023-05-14T09:50:37.007Z,57.80
2023-05-14T09:53:03.365Z,57.78
2023-05-14T09:55:29.773Z,57.01
2023-05-14T09:57:56.109Z,56.75
2023-05-14T10:00:22.849Z,55.88
2023-05-14T10:02:49.472Z,56.23
2023-05-14T10:05:15.851Z,56.26
2023-05-14T10:07:42.245Z,55.87
2023-05-14T10:10:08.621Z,55.77
2023-05-14T10:12:35.070Z,55.17
2023-05-14T10:15:01.441Z,54.67
2023-05-14T10:17:27.818Z,54.77
2023-05-14T10:19:54.238Z,55.10
2023-05-14T10:22:20.644Z,55.52
2023-05-14T10:24:46.990Z,54.59
2023-05-14T10:27:13.356Z,54.25
2023-05-14T10:29:39.691Z,54.79
2023-05-14T10:32:06.055Z,53.89
2023-05-14T10:34:32.578Z,54.17
2023-05-14T10:36:58.965Z,53.67
2023-05-14T10:39:25.289Z,53.53
2023-05-14T10:41:51.677Z,51.68
2023-05-14T10:44:18.032Z,52.45
2023-05-14T10:46:44.404Z,51.63
2023-05-14T10:49:10.792Z,51.57
2023-05-14T10:51:37.234Z,51.67
2023-05-14T10:54:03.750Z,51.30
2023-05-14T10:56:30.420Z,51.31
2023-05-14T10:58:56.847Z,50.67
2023-05-14T11:01:23.327Z,50.57
2023-05-14T11:03:49.777Z,51.02
2023-05-14T11:06:16.205Z,50.23
2023-05-14T11:08:42.838Z,49.57
2023-05-14T11:11:09.375Z,49.96
2023-05-14T11:13:35.726Z,49.11
2023-05-14T11:16:06.310Z,50.02
2023-05-14T11:18:42.051Z,48.50
2023-05-14T11:21:08.565Z,49.44
2023-05-14T11:23:34.939Z,50.63
2023-05-14T11:26:01.339Z,50.68
2023-05-14T11:28:27.785Z,51.40
2023-05-14T11:30:54.207Z,51.23
2023-05-14T11:33:22.076Z,51.54
2023-05-14T11:35:48.423Z,51.55
2023-05-14T11:38:14.780Z,51.08
2023-05-14T11:40:41.190Z,50.63
2023-05-14T11:43:07.606Z,51.16
2023-05-14T11:45:33.980Z,51.32
2023-05-14T11:48:00.411Z,51.38
2023-05-14T11:50:26.899Z,51.87
2023-05-14T11:52:53.464Z,51.77
2023-05-14T11:55:19.893Z,52.17
2023-05-14T11:57:46.290Z,52.48
2023-05-14T12:00:12.653Z,53.62
2023-05-14T12:02:39.051Z,53.50
2023-05-14T12:05:05.403Z,52.58
2023-05-14T12:07:31.785Z,53.20
2023-05-14T12:09:58.154Z,50.59
2023-05-14T12:12:24.503Z,48.80
2023-05-14T12:14:50.883Z,49.67
2023-05-14T12:17:17.303Z,48.92
2023-05-14T12:19:43.779Z,49.73
2023-05-14T12:22:10.101Z,49.25
2023-05-14T12:24:36.448Z,47.28
2023-05-14T12:27:02.801Z,48.45
2023-05-14T12:29:29.192Z,46.62
2023-05-14T12:31:55.591Z,47.21
2023-05-14T12:34:22.027Z,47.12
2023-05-14T12:36:48.363Z,46.86
2023-05-14T12:39:14.709Z,46.88
2023-05-14T12:41:41.032Z,46.51
2023-05-14T12:44:07.392Z,46.13
2023-05-14T12:46:33.774Z,46.64
2023-05-14T12:49:00.178Z,46.38
2023-05-14T12:51:26.523Z,46.23
2023-05-14T12:53:52.913Z,46.43
2023-05-14T12:56:19.272Z,47.05
2023-05-14T12:58:45.617Z,47.63
2023-05-14T13:01:11.994Z,46.39
2023-05-14T13:03:38.379Z,46.21
2023-05-14T13:06:04.696Z,47.66
2023-05-14T13:08:31.083Z,47.78
2023-05-14T13:10:57.432Z,47.20
2023-05-14T13:13:23.813Z,47.25
2023-05-14T13:15:50.230Z,45.95
2023-05-14T13:18:16.674Z,46.98
2023-05-14T13:20:43.379Z,49.76
2023-05-14T13:23:09.924Z,47.25
2023-05-14T13:25:36.329Z,47.65
2023-05-14T13:28:02.697Z,49.21
2023-05-14T13:30:29.093Z,50.21
2023-05-14T13:32:55.508Z,48.91
2023-05-14T13:35:22.086Z,48.31
2023-05-14T13:37:48.687Z,47.55
2023-05-14T13:40:15.138Z,47.42
2023-05-14T13:42:41.538Z,47.18
2023-05-14T13:45:07.909Z,46.79
2023-05-14T13:47:34.336Z,47.93
2023-05-14T13:50:00.688Z,48.59
2023-05-14T13:52:27.052Z,49.93
2023-05-14T13:54:53.408Z,48.31
2023-05-14T13:57:19.714Z,47.81
2023-05-14T13:59:46.210Z,43.78
2023-05-14T14:02:12.588Z,47.36
2023-05-14T14:04:38.937Z,47.39
2023-05-14T14:07:05.286Z,45.94
2023-05-14T14:09:31.663Z,45.56
2023-05-14T14:11:58.068Z,44.72
2023-05-14T14:14:24.432Z,45.79
2023-05-14T14:16:50.843Z,45.19
2023-05-14T14:19:18.535Z,44.79
2023-05-14T14:21:45.136Z,43.67
2023-05-14T14:24:11.513Z,43.69
2023-05-14T14:26:37.892Z,44.15
2023-05-14T14:29:04.291Z,43.10
2023-05-14T14:31:30.748Z,42.63
2023-05-14T14:33:57.184Z,43.28
2023-05-14T14:36:23.642Z,42.81
2023-05-14T14:38:50.041Z,42.77
2023-05-14T14:41:16.441Z,42.75
2023-05-14T14:43:42.826Z,41.95
2023-05-14T14:46:09.285Z,41.45
2023-05-14T14:48:35.701Z,41.34
2023-05-14T14:51:02.046Z,42.06
2023-05-14T14:53:28.395Z,40.91
2023-05-14T14:55:54.732Z,42.22
2023-05-14T14:58:21.210Z,42.33
2023-05-14T15:00:47.655Z,41.68
2023-05-14T15:03:14.179Z,41.10
2023-05-14T15:05:40.701Z,41.23
2023-05-14T15:08:07.083Z,41.62
2023-05-14T15:10:33.454Z,40.99
2023-05-14T15:12:59.880Z,41.15
2023-05-14T15:15:26.297Z,40.19
2023-05-14T15:17:52.707Z,40.87
2023-05-14T15:20:19.116Z,40.82
2023-05-14T15:22:45.459Z,40.98
2023-05-14T15:25:11.864Z,40.33
2023-05-14T15:27:38.209Z,41.78
2023-05-14T15:30:04.791Z,39.80
2023-05-14T15:32:31.222Z,39.74
2023-05-14T15:34:57.634Z,40.38
2023-05-14T15:37:24.017Z,40.64
2023-05-14T15:39:50.392Z,39.96
2023-05-14T15:42:16.759Z,41.01
2023-05-14T15:44:43.122Z,45.75
2023-05-14T15:47:09.490Z,48.48
2023-05-14T15:49:35.926Z,49.89
2023-05-14T15:52:02.253Z,50.89
2023-05-14T15:54:28.582Z,51.07
2023-05-14T15:56:54.894Z,51.70
2023-05-14T15:59:21.307Z,50.75
2023-05-14T16:01:47.689Z,49.01
2023-05-14T16:04:14.150Z,48.17
2023-05-14T16:06:40.634Z,47.59
2023-05-14T16:09:07.027Z,48.11
2023-05-14T16:11:33.440Z,48.62
2023-05-14T16:13:59.806Z,49.26
2023-05-14T16:16:26.247Z,49.59
2023-05-14T16:18:52.626Z,50.01
2023-05-14T16:21:19.068Z,50.31
2023-05-14T16:23:45.404Z,50.38
2023-05-14T16:26:11.856Z,50.46
2023-05-14T16:28:38.224Z,50.32
2023-05-14T16:31:04.641Z,50.31
2023-05-14T16:33:30.988Z,50.10
2023-05-14T16:35:57.327Z,46.38
2023-05-14T16:38:23.802Z,44.81
2023-05-14T16:40:50.325Z,43.14
2023-05-14T16:43:16.760Z,41.79
2023-05-14T16:45:43.158Z,40.96
2023-05-14T16:48:09.629Z,37.45
2023-05-14T16:50:36.014Z,38.87
2023-05-14T16:53:02.360Z,41.79
2023-05-14T16:55:28.797Z,42.26
2023-05-14T16:57:55.311Z,44.41
2023-05-14T17:00:21.704Z,45.88
2023-05-14T17:02:48.109Z,47.79
2023-05-14T17:05:14.526Z,47.50
2023-05-14T17:07:40.909Z,48.29
2023-05-14T17:10:07.259Z,47.66
2023-05-14T17:12:33.738Z,47.12
2023-05-14T17:15:00.722Z,47.27
2023-05-14T17:17:27.862Z,47.80
2023-05-14T17:19:54.490Z,48.48
2023-05-14T17:22:20.877Z,48.85
2023-05-14T17:24:47.228Z,49.92
2023-05-14T17:27:15.336Z,50.42
2023-05-14T17:29:43.052Z,50.21
2023-05-14T17:32:09.438Z,48.51
2023-05-14T17:34:35.836Z,50.79
2023-05-14T17:37:02.223Z,51.98
2023-05-14T17:39:28.647Z,52.21
2023-05-14T17:41:55.052Z,52.09
2023-05-14T17:44:21.470Z,52.20
2023-05-14T17:46:47.799Z,52.33
2023-05-14T17:49:14.261Z,51.78
2023-05-14T17:51:40.683Z,51.00
2023-05-14T17:54:07.159Z,50.41
2023-05-14T17:56:33.535Z,51.15
2023-05-14T17:58:59.891Z,51.15
2023-05-14T18:01:26.504Z,51.57
2023-05-14T18:03:52.924Z,51.13
2023-05-14T18:06:19.383Z,50.62
2023-05-14T18:08:45.697Z,50.03
2023-05-14T18:11:12.034Z,49.85
2023-05-14T18:13:38.395Z,50.07
2023-05-14T18:16:04.747Z,50.46
2023-05-14T18:18:31.113Z,50.95
2023-05-14T18:20:57.482Z,50.54
2023-05-14T18:23:23.864Z,50.52
2023-05-14T18:25:50.310Z,51.85
2023-05-14T18:28:16.767Z,51.83
2023-05-14T18:30:43.130Z,54.13
2023-05-14T18:33:09.568Z,54.63
2023-05-14T18:35:36.009Z,52.78
2023-05-14T18:38:02.418Z,51.79
2023-05-14T18:40:28.861Z,52.51
2023-05-14T18:42:55.252Z,51.79
2023-05-14T18:45:21.703Z,52.23
2023-05-14T18:47:48.111Z,52.53
2023-05-14T18:50:14.551Z,51.87
2023-05-14T18:52:40.973Z,52.21
2023-05-14T18:55:07.358Z,51.64
2023-05-14T18:57:33.736Z,51.79
2023-05-14T19:00:00.167Z,52.87
2023-05-14T19:02:26.638Z,53.32
2023-05-14T19:04:53.323Z,53.21
2023-05-14T19:07:19.766Z,53.27
2023-05-14T19:09:46.142Z,53.55
2023-05-14T19:12:12.797Z,53.44
2023-05-14T19:14:39.198Z,53.49
2023-05-14T19:17:05.546Z,53.82
2023-05-14T19:19:31.971Z,53.94
2023-05-14T19:21:58.360Z,54.64
2023-05-14T19:24:24.768Z,53.00
2023-05-14T19:26:51.151Z,52.13
2023-05-14T19:29:17.498Z,52.58
2023-05-14T19:31:44.013Z,52.13
2023-05-14T19:34:10.465Z,52.32
2023-05-14T19:36:36.863Z,52.54
2023-05-14T19:39:03.301Z,52.42
2023-05-14T19:41:29.761Z,52.54
2023-05-14T19:43:56.150Z,53.13
2023-05-14T19:46:22.563Z,53.16
2023-05-14T19:48:48.949Z,53.04
2023-05-14T19:51:15.280Z,53.27
2023-05-14T19:53:41.608Z,53.01
2023-05-14T19:56:07.942Z,53.28
2023-05-14T19:58:34.369Z,53.61
2023-05-14T20:01:00.902Z,53.07
2023-05-14T20:03:27.353Z,53.79
2023-05-14T20:05:53.738Z,53.42
2023-05-14T20:08:20.083Z,53.84
2023-05-14T20:10:46.432Z,53.90
2023-05-14T20:13:14.106Z,53.95
2023-05-14T20:15:40.501Z,54.12
2023-05-14T20:18:06.933Z,53.25
2023-05-14T20:20:33.812Z,53.82
2023-05-14T20:23:00.372Z,54.31
2023-05-14T20:25:28.336Z,54.83
2023-05-14T20:27:55.121Z,54.39
2023-05-14T20:30:21.472Z,54.99
2023-05-14T20:32:47.952Z,54.73
2023-05-14T20:35:14.356Z,53.83
2023-05-14T20:37:40.870Z,53.79
2023-05-14T20:40:07.411Z,55.83
2023-05-14T20:42:33.970Z,55.21
2023-05-14T20:45:00.339Z,54.72
2023-05-14T20:47:26.864Z,55.03
2023-05-14T20:49:53.258Z,54.06
2023-05-14T20:52:19.591Z,54.32
2023-05-14T20:54:46.000Z,54.15
2023-05-14T20:57:12.363Z,55.05
2023-05-14T20:59:38.802Z,55.30
2023-05-14T21:02:05.280Z,55.41
2023-05-14T21:04:31.784Z,56.09
2023-05-14T21:06:58.164Z,56.56
2023-05-14T21:09:24.521Z,55.90
2023-05-14T21:11:50.871Z,57.23
2023-05-14T21:14:17.251Z,56.29
2023-05-14T21:16:43.673Z,56.31
2023-05-14T21:19:10.163Z,57.04
2023-05-14T21:21:37.025Z,55.77
2023-05-14T21:24:03.393Z,57.33
2023-05-14T21:26:29.722Z,57.14
2023-05-14T21:28:56.091Z,56.83
2023-05-14T21:31:22.496Z,57.08
2023-05-14T21:33:49.019Z,56.38
2023-05-14T21:36:15.407Z,56.34
2023-05-14T21:38:41.785Z,55.79
2023-05-14T21:41:08.151Z,56.56
2023-05-14T21:43:34.535Z,56.71
2023-05-14T21:46:00.900Z,56.53
2023-05-14T21:48:27.362Z,56.26
2023-05-14T21:50:53.765Z,56.53
2023-05-14T21:53:20.137Z,56.42
2023-05-14T21:55:46.463Z,56.35
2023-05-14T21:58:12.828Z,56.09
2023-05-14T22:00:39.197Z,55.90
2023-05-14T22:03:05.633Z,56.58
2023-05-14T22:05:32.080Z,55.71
2023-05-14T22:07:58.410Z,56.11
2023-05-14T22:10:24.753Z,56.23
2023-05-14T22:12:51.188Z,56.16
2023-05-14T22:15:17.566Z,55.86
2023-05-14T22:17:43.951Z,56.24
2023-05-14T22:20:10.330Z,56.40
2023-05-14T22:22:36.658Z,56.98
2023-05-14T22:25:02.991Z,56.30
2023-05-14T22:27:29.333Z,56.14
2023-05-14T22:29:55.766Z,56.30
2023-05-14T22:32:22.122Z,56.08
2023-05-14T22:34:48.455Z,56.60
2023-05-14T22:37:14.795Z,56.49
2023-05-14T22:39:41.208Z,56.19
2023-05-14T22:42:07.596Z,56.48
2023-05-14T22:44:34.027Z,56.61
2023-05-14T22:47:00.393Z,56.43
2023-05-14T22:49:26.733Z,57.66
2023-05-14T22:51:53.086Z,57.54
2023-05-14T22:54:19.461Z,57.83
2023-05-14T22:56:45.791Z,57.20
2023-05-14T22:59:12.177Z,57.20
2023-05-14T23:01:38.650Z,57.52
2023-05-14T23:04:05.100Z,57.50
2023-05-14T23:06:32.610Z,57.66
2023-05-14T23:08:58.989Z,57.63
2023-05-14T23:11:25.344Z,57.00
2023-05-14T23:13:51.692Z,57.31
2023-05-14T23:16:18.071Z,57.35
2023-05-14T23:18:44.512Z,57.97
2023-05-14T23:21:10.955Z,57.87
2023-05-14T23:23:37.297Z,58.28
2023-05-14T23:26:03.651Z,58.31
2023-05-14T23:28:29.967Z,58.36
2023-05-14T23:30:56.279Z,58.20
2023-05-14T23:33:22.615Z,58.11
2023-05-14T23:35:48.944Z,58.43
2023-05-14T23:38:15.282Z,59.03
2023-05-14T23:40:41.605Z,58.78
2023-05-14T23:43:08.009Z,58.49
2023-05-14T23:45:34.413Z,57.89
2023-05-14T23:48:00.867Z,58.63
2023-05-14T23:50:27.279Z,58.45
2023-05-14T23:52:53.638Z,57.96
2023-05-14T23:55:20.004Z,57.33
2023-05-14T23:57:46.389Z,56.88
